Time;durP1;ratioP1;P1;durP2;ratioP2;P2;SDS_P1;SDS_P2;PMS_P1;PMS_P2;Temp;Humidity;BMP_temperature;BMP_pressure;BME280_temperature;BME280_humidity;BME280_pressure;Samples;Min_cycle;Max_cycle;Signal;HPM_P1;HPM_P2
2022/08/25 00:03:39;;;;;;;1.38;0.95;;;19.10;57.70;21.10;93995.00;;;;10440124;28;45350;-55
2022/08/25 00:09:01;;;;;;;2.10;0.90;;;19.10;58.50;21.10;93986.00;;;;10434015;28;45374;-58
2022/08/25 00:14:25;;;;;;;1.70;1.10;;;19.10;57.80;21.20;94002.00;;;;10453098;28;45283;-57
2022/08/25 00:19:46;;;;;;;1.38;0.77;;;19.10;57.70;21.20;93995.00;;;;10433751;28;45802;-57
2022/08/25 00:25:09;;;;;;;1.20;0.95;;;19.10;57.60;21.10;94004.00;;;;10432964;28;45218;-58
2022/08/25 00:30:30;;;;;;;1.15;0.90;;;19.10;57.70;21.10;94003.00;;;;10442707;28;45159;-57
2022/08/25 00:35:51;;;;;;;1.00;0.90;;;19.00;57.70;21.10;94001.00;;;;10432364;28;45941;-58
2022/08/25 00:41:19;;;;;;;1.27;0.90;;;19.00;57.90;21.10;93995.00;;;;10463442;28;45212;-59
2022/08/25 00:46:46;;;;;;;1.63;1.00;;;19.00;58.10;21.10;93993.00;;;;10474906;28;45313;-57
2022/08/25 00:52:10;;;;;;;1.40;0.85;;;19.00;57.90;21.10;93992.00;;;;10474240;28;45291;-57
2022/08/25 00:57:37;;;;;;;1.08;0.90;;;19.00;57.80;21.00;93991.00;;;;10454572;28;45718;-56
2022/08/25 01:02:59;;;;;;;1.55;0.90;;;19.00;58.00;21.00;93992.00;;;;10437352;28;45805;-57
2022/08/25 01:08:22;;;;;;;2.38;0.90;;;18.90;58.00;21.00;93982.00;;;;10429958;28;45135;-58
2022/08/25 01:13:49;;;;;;;1.60;1.10;;;18.90;58.10;21.00;93983.00;;;;10459101;28;45249;-59
2022/08/25 01:19:14;;;;;;;1.00;0.90;;;18.90;58.10;21.00;93988.00;;;;10472064;28;45148;-59
2022/08/25 01:24:42;;;;;;;1.10;0.80;;;18.90;58.00;21.00;93983.00;;;;10445965;28;45253;-57
2022/08/25 01:30:04;;;;;;;1.40;0.80;;;18.90;58.00;21.00;93981.00;;;;10449140;28;45192;-58
2022/08/25 01:35:25;;;;;;;1.10;0.80;;;18.90;57.90;21.00;93971.00;;;;10473155;28;45838;-57
2022/08/25 01:40:47;;;;;;;1.13;0.80;;;18.90;58.00;21.00;93975.00;;;;10472602;28;45818;-57
2022/08/25 01:46:08;;;;;;;1.70;1.00;;;18.90;58.00;21.00;93979.00;;;;10471317;28;45362;-57
2022/08/25 01:51:35;;;;;;;1.15;1.02;;;18.90;57.90;21.00;93972.00;;;;10464026;28;45881;-57
2022/08/25 01:56:58;;;;;;;1.20;0.95;;;18.90;57.90;20.90;93983.00;;;;10447762;28;45313;-59
2022/08/25 02:02:18;;;;;;;1.08;0.93;;;18.80;57.80;20.90;93985.00;;;;10471271;28;45276;-57
2022/08/25 02:07:40;;;;;;;1.20;0.80;;;18.80;57.90;20.90;93982.00;;;;10429202;28;45339;-57
2022/08/25 02:13:02;;;;;;;2.28;1.23;;;18.80;57.90;20.90;93970.00;;;;10431047;28;45338;-56
2022/08/25 02:18:23;;;;;;;1.23;0.90;;;18.80;57.90;20.90;93979.00;;;;10430170;28;45146;-58
2022/08/25 02:23:44;;;;;;;1.30;0.80;;;18.80;57.90;20.90;93978.00;;;;10458693;28;45410;-58
2022/08/25 02:29:07;;;;;;;1.00;0.90;;;18.80;57.90;20.90;93956.00;;;;10470142;28;45404;-60
2022/08/25 02:34:28;;;;;;;1.50;1.10;;;18.80;57.90;20.90;93959.00;;;;10471501;28;45166;-56
2022/08/25 02:39:48;;;;;;;1.30;0.90;;;18.80;57.90;20.80;93949.00;;;;10470417;28;45240;-57
2022/08/25 02:45:11;;;;;;;2.15;0.90;;;18.80;58.00;20.80;93962.00;;;;10468907;28;45276;-58
2022/08/25 02:50:31;;;;;;;1.95;0.80;;;18.70;58.00;20.80;93951.00;;;;10469809;28;45234;-57
2022/08/25 02:55:52;;;;;;;1.27;0.88;;;18.70;58.00;20.80;93947.00;;;;10438756;28;45719;-56
2022/08/25 03:01:15;;;;;;;1.40;1.08;;;18.70;58.00;20.80;93948.00;;;;10470725;28;45585;-56
2022/08/25 03:06:35;;;;;;;1.23;0.82;;;18.70;58.00;20.80;93950.00;;;;10430137;28;45230;-58
2022/08/25 03:11:56;;;;;;;1.35;0.88;;;18.70;57.90;20.80;93953.00;;;;10430759;28;45230;-58
2022/08/25 03:17:18;;;;;;;1.63;1.10;;;18.70;58.00;20.80;93955.00;;;;10429089;28;45277;-57
2022/08/25 03:22:39;;;;;;;2.20;0.90;;;18.70;57.90;20.70;93974.00;;;;10429472;28;45277;-58
2022/08/25 03:28:00;;;;;;;1.50;0.90;;;18.60;58.00;20.70;93959.00;;;;10456162;28;45118;-58
2022/08/25 03:33:21;;;;;;;1.75;1.15;;;18.60;57.90;20.70;93966.00;;;;10469393;28;45268;-58
2022/08/25 03:38:42;;;;;;;1.23;0.95;;;18.60;57.90;20.80;93969.00;;;;10425650;28;45210;-58
2022/08/25 03:44:06;;;;;;;1.85;1.08;;;18.60;57.90;20.70;93953.00;;;;10427065;28;45376;-58
2022/08/25 03:49:28;;;;;;;1.45;1.00;;;18.60;57.90;20.70;93960.00;;;;10434267;28;45365;-58
2022/08/25 03:54:49;;;;;;;0.93;0.80;;;18.60;57.90;20.70;93956.00;;;;10442098;28;45174;-58
2022/08/25 04:00:11;;;;;;;1.20;1.00;;;18.60;57.90;20.70;93943.00;;;;10437816;28;45293;-57
2022/08/25 04:05:34;;;;;;;1.67;1.10;;;18.50;57.80;20.70;93934.00;;;;10429917;28;46101;-58
2022/08/25 04:10:54;;;;;;;2.15;1.00;;;18.50;57.80;20.70;93933.00;;;;10428527;28;45122;-58
2022/08/25 04:16:18;;;;;;;1.73;1.05;;;18.50;57.80;20.60;93938.00;;;;10457383;28;45229;-58
2022/08/25 04:21:41;;;;;;;1.52;1.00;;;18.50;57.70;20.60;93916.00;;;;10467632;28;45923;-58
2022/08/25 04:27:01;;;;;;;1.85;1.10;;;18.50;57.70;20.60;93950.00;;;;10467114;28;45951;-59
2022/08/25 04:32:22;;;;;;;1.33;0.90;;;18.50;57.70;20.60;93955.00;;;;10468837;28;45241;-57
2022/08/25 04:37:46;;;;;;;1.48;0.88;;;18.50;57.70;20.60;93951.00;;;;10468011;28;45995;-57
2022/08/25 04:43:07;;;;;;;1.38;1.02;;;18.40;57.70;20.60;93940.00;;;;10474595;28;45220;-59
2022/08/25 04:48:28;;;;;;;1.38;0.90;;;18.40;57.60;20.50;93944.00;;;;10473373;28;45313;-58
2022/08/25 04:53:51;;;;;;;1.42;1.02;;;18.40;57.70;20.50;93952.00;;;;10448233;28;45313;-57
2022/08/25 04:59:16;;;;;;;1.80;1.10;;;18.40;57.70;20.50;93938.00;;;;10469567;28;45798;-58
2022/08/25 05:04:38;;;;;;;1.23;1.08;;;18.40;57.70;20.50;93940.00;;;;10446676;28;45212;-58
2022/08/25 05:09:59;;;;;;;1.95;1.13;;;18.40;57.60;20.50;93940.00;;;;10447583;28;45398;-57
2022/08/25 05:21:04;;;;;;;1.90;1.17;;;18.40;57.70;20.50;93933.00;;;;10451856;28;45794;-59
2022/08/25 05:26:29;;;;;;;1.50;0.97;;;18.30;57.90;20.50;93935.00;;;;10446473;28;45405;-58
2022/08/25 05:31:49;;;;;;;1.55;1.20;;;18.30;58.00;20.50;93932.00;;;;10430423;28;45302;-58
2022/08/25 05:37:10;;;;;;;1.10;0.90;;;18.40;58.00;20.50;93916.00;;;;10431739;28;45137;-58
2022/08/25 05:42:32;;;;;;;1.20;0.88;;;18.40;58.00;20.50;93919.00;;;;10445633;28;45792;-58
2022/08/25 05:47:52;;;;;;;1.20;0.85;;;18.40;58.30;20.50;93916.00;;;;10431206;28;45222;-58
2022/08/25 05:53:13;;;;;;;1.00;0.90;;;18.40;58.40;20.50;93923.00;;;;10449315;28;45190;-58
2022/08/25 05:58:36;;;;;;;1.30;0.88;;;18.40;58.50;20.50;93922.00;;;;10448855;28;45147;-59
2022/08/25 06:03:57;;;;;;;1.95;1.10;;;18.30;58.50;20.50;93919.00;;;;10450892;28;45258;-58
2022/08/25 06:09:18;;;;;;;2.22;1.05;;;18.40;58.60;20.60;93922.00;;;;10440840;28;45350;-58
2022/08/25 06:14:40;;;;;;;1.67;0.95;;;18.40;58.90;20.60;93923.00;;;;10457781;28;45858;-58
2022/08/25 06:20:01;;;;;;;1.10;1.00;;;18.50;58.70;20.60;93906.00;;;;10429865;28;45300;-58
2022/08/25 06:25:25;;;;;;;1.98;1.15;;;18.50;58.70;20.60;93906.00;;;;10433026;28;45234;-57
2022/08/25 06:30:47;;;;;;;1.95;1.05;;;18.60;58.70;20.60;93909.00;;;;10456305;28;45237;-57
2022/08/25 06:36:08;;;;;;;3.63;1.13;;;18.60;58.90;20.60;93905.00;;;;10428229;28;45795;-59
2022/08/25 06:41:29;;;;;;;1.55;1.15;;;18.60;58.80;20.60;93921.00;;;;10427889;28;45436;-58
2022/08/25 06:46:51;;;;;;;1.60;1.02;;;18.60;58.70;20.60;93904.00;;;;10426799;28;45236;-59
2022/08/25 06:52:12;;;;;;;2.28;1.10;;;18.60;58.70;20.70;93919.00;;;;10459800;28;45322;-58
2022/08/25 06:57:34;;;;;;;1.60;1.17;;;18.60;58.70;20.60;93921.00;;;;10453207;28;45660;-58
2022/08/25 07:02:57;;;;;;;2.00;1.10;;;18.60;58.70;20.70;93915.00;;;;10450151;28;45358;-58
2022/08/25 07:08:18;;;;;;;3.33;1.13;;;18.60;58.60;20.70;93916.00;;;;10452351;28;45220;-58
2022/08/25 07:13:39;;;;;;;1.95;1.20;;;18.60;58.50;20.70;93928.00;;;;10428446;28;45267;-58
2022/08/25 07:19:04;;;;;;;1.88;1.15;;;18.60;58.40;20.70;93912.00;;;;10428829;28;45452;-58
2022/08/25 07:24:25;;;;;;;1.52;1.20;;;18.70;58.30;20.70;93924.00;;;;10458883;28;45828;-58
2022/08/25 07:29:45;;;;;;;3.28;1.02;;;18.70;58.30;20.80;93934.00;;;;10461092;28;45204;-59
2022/08/25 07:35:17;;;;;;;5.93;1.60;;;18.70;58.00;20.70;93935.00;;;;10446259;28;45605;-59
2022/08/25 07:40:38;;;;;;;8.18;1.45;;;18.70;58.80;20.70;93943.00;;;;10447969;28;45200;-58
2022/08/25 07:45:59;;;;;;;2.65;1.20;;;18.70;58.80;20.80;93939.00;;;;10444874;28;45204;-57
2022/08/25 07:51:21;;;;;;;1.73;1.15;;;18.70;58.70;20.80;93921.00;;;;10445489;28;45273;-58
2022/08/25 07:56:42;;;;;;;2.00;1.20;;;18.70;58.70;20.80;93939.00;;;;10443310;28;45252;-59
2022/08/25 08:02:02;;;;;;;2.40;1.35;;;18.70;58.70;20.80;93939.00;;;;10462872;28;45277;-59
2022/08/25 08:07:26;;;;;;;2.45;1.10;;;18.80;58.40;20.80;93924.00;;;;10427252;28;45803;-58
2022/08/25 08:12:47;;;;;;;1.40;1.00;;;18.70;58.40;20.80;93925.00;;;;10434923;28;45281;-58
2022/08/25 08:18:07;;;;;;;2.22;1.08;;;18.70;58.30;20.80;93934.00;;;;10449901;28;45159;-59
2022/08/25 08:23:29;;;;;;;4.15;1.20;;;18.70;58.40;20.80;93931.00;;;;10455235;28;45881;-58
2022/08/25 08:28:51;;;;;;;1.50;1.00;;;18.80;58.40;20.90;93936.00;;;;10453906;28;45241;-59
2022/08/25 08:34:12;;;;;;;2.75;1.20;;;18.80;58.50;20.90;93938.00;;;;10454874;28;45287;-58
2022/08/25 08:39:33;;;;;;;2.80;1.05;;;18.80;58.40;20.90;93931.00;;;;10451807;28;45259;-58
2022/08/25 08:45:16;;;;;;;1.23;0.80;;;18.80;58.40;20.90;93932.00;;;;10455565;28;45224;-58
2022/08/25 08:50:45;;;;;;;1.15;0.93;;;18.80;58.40;20.90;93933.00;;;;10464204;28;45184;-57
2022/08/25 08:56:13;;;;;;;1.98;1.10;;;18.80;58.30;20.90;93935.00;;;;10443431;28;45166;-56
2022/08/25 09:01:40;;;;;;;1.73;1.13;;;18.80;58.20;20.90;93938.00;;;;10472196;28;45390;-57
2022/08/25 09:07:03;;;;;;;1.40;0.93;;;18.90;58.30;20.90;93934.00;;;;10451784;28;45292;-59
2022/08/25 09:12:36;;;;;;;2.83;1.00;;;18.90;58.10;20.90;93928.00;;;;10449595;28;45134;-59
2022/08/25 09:18:09;;;;;;;1.10;0.90;;;18.90;58.30;20.90;93931.00;;;;10431655;28;45158;-58
2022/08/25 09:23:42;;;;;;;2.13;1.00;;;18.90;58.30;21.00;93916.00;;;;10430808;28;45810;-58
2022/08/25 09:29:09;;;;;;;1.48;0.80;;;18.90;58.10;21.00;93928.00;;;;10460860;28;45157;-58
2022/08/25 09:34:33;;;;;;;1.38;0.93;;;18.90;58.10;21.00;93922.00;;;;10474138;28;45893;-58
2022/08/25 09:39:55;;;;;;;1.45;0.90;;;18.90;58.00;21.00;93916.00;;;;10473442;28;45897;-58
2022/08/25 09:45:31;;;;;;;1.38;1.15;;;18.90;58.00;21.00;93927.00;;;;10473307;28;45184;-56
2022/08/25 09:50:56;;;;;;;1.10;0.88;;;18.90;58.00;21.00;93935.00;;;;10459330;28;45244;-58
2022/08/25 09:56:21;;;;;;;1.08;0.85;;;18.90;57.90;21.00;93923.00;;;;10449742;28;45504;-58
2022/08/25 10:01:50;;;;;;;1.45;0.90;;;18.90;57.70;21.00;93923.00;;;;10435019;28;45188;-58
2022/08/25 10:07:24;;;;;;;1.50;1.10;;;18.90;57.70;21.00;93911.00;;;;10430250;28;45564;-58
2022/08/25 10:12:46;;;;;;;1.17;0.85;;;18.90;57.70;21.00;93915.00;;;;10431576;28;45294;-58
2022/08/25 10:18:25;;;;;;;2.28;1.10;;;18.90;57.60;21.00;93921.00;;;;10430733;28;45135;-57
2022/08/25 10:23:50;;;;;;;0.80;0.80;;;18.90;57.60;21.00;93926.00;;;;10430741;28;45425;-59
2022/08/25 10:29:30;;;;;;;1.10;0.82;;;18.90;57.50;21.00;93904.00;;;;10449754;28;45459;-59
2022/08/25 10:34:56;;;;;;;1.42;0.90;;;18.90;57.50;21.00;93898.00;;;;10464722;28;45243;-58
2022/08/25 10:40:25;;;;;;;2.53;1.00;;;18.90;57.50;21.00;93902.00;;;;10464648;28;45147;-58
2022/08/25 10:45:51;;;;;;;2.42;1.00;;;18.90;57.40;21.00;93901.00;;;;10459167;28;45212;-58
2022/08/25 10:51:32;;;;;;;1.40;1.00;;;18.90;57.40;21.00;93897.00;;;;10454801;28;45684;-59
2022/08/25 10:57:05;;;;;;;1.13;0.70;;;18.90;57.40;21.00;93878.00;;;;10458600;28;45280;-59
2022/08/25 11:03:06;;;;;;;1.23;0.80;;;18.90;57.30;21.10;93874.00;;;;10461411;28;45814;-58
2022/08/25 11:08:35;;;;;;;1.80;1.00;;;18.90;57.20;21.10;93877.00;;;;10429456;28;45483;-58
2022/08/25 11:14:01;;;;;;;1.13;0.93;;;18.90;57.20;21.10;93855.00;;;;10429080;28;45341;-58
2022/08/25 11:19:29;;;;;;;1.20;0.93;;;19.00;57.50;21.10;93865.00;;;;10457538;28;45698;-59
2022/08/25 11:25:03;;;;;;;0.90;0.70;;;19.00;57.20;21.10;93867.00;;;;10469745;28;45166;-59
2022/08/25 11:30:24;;;;;;;0.90;0.75;;;19.00;57.10;21.10;93861.00;;;;10469675;28;45209;-58
2022/08/25 11:35:51;;;;;;;1.60;1.08;;;19.00;57.10;21.10;93842.00;;;;10469674;28;45739;-58
2022/08/25 11:41:26;;;;;;;0.90;0.75;;;19.00;57.10;21.10;93844.00;;;;10469764;28;45776;-58
2022/08/25 11:47:10;;;;;;;0.90;0.70;;;19.00;57.00;21.10;93848.00;;;;10469336;28;45486;-59
2022/08/25 11:52:49;;;;;;;1.13;0.85;;;19.00;57.00;21.20;93840.00;;;;10453111;28;45215;-58
2022/08/25 11:58:38;;;;;;;1.40;1.00;;;19.00;56.90;21.20;93838.00;;;;10455250;28;45317;-57
2022/08/25 12:04:14;;;;;;;1.02;0.82;;;19.10;56.90;21.20;93831.00;;;;10453384;28;45835;-59
2022/08/25 12:10:20;;;;;;;1.10;0.80;;;19.10;56.90;21.20;93828.00;;;;10446489;28;45672;-58
2022/08/25 12:16:01;;;;;;;1.30;0.80;;;19.10;56.90;21.20;93822.00;;;;10445746;28;45668;-59
2022/08/25 12:21:33;;;;;;;0.88;0.73;;;19.10;56.90;21.20;93823.00;;;;10439075;28;45455;-58
2022/08/25 12:27:01;;;;;;;0.80;0.68;;;19.10;56.80;21.20;93826.00;;;;10432640;28;45320;-59
2022/08/25 12:32:49;;;;;;;1.33;0.73;;;19.10;56.70;21.20;93819.00;;;;10468669;28;45215;-59
2022/08/25 12:38:15;;;;;;;1.08;0.80;;;19.20;56.80;21.30;93807.00;;;;10454526;28;45478;-58
2022/08/25 12:43:40;;;;;;;1.77;0.90;;;19.20;56.80;21.30;93813.00;;;;10425667;28;45309;-60
2022/08/25 12:49:03;;;;;;;1.65;0.85;;;19.20;56.80;21.30;93817.00;;;;10426223;28;45128;-57
2022/08/25 12:54:39;;;;;;;1.42;0.73;;;19.30;56.80;21.30;93799.00;;;;10448181;28;45300;-59
2022/08/25 13:00:15;;;;;;;0.90;0.70;;;19.20;56.70;21.30;93814.00;;;;10443072;28;45893;-60
2022/08/25 13:06:28;;;;;;;0.80;0.80;;;19.20;56.80;21.40;93795.00;;;;10436091;28;45149;-59
2022/08/25 13:11:56;;;;;;;1.50;0.77;;;19.30;56.80;21.40;93797.00;;;;10465163;28;45209;-58
2022/08/25 13:17:27;;;;;;;1.95;0.88;;;19.30;56.80;21.40;93795.00;;;;10474016;28;45698;-58
2022/08/25 13:22:50;;;;;;;0.90;0.80;;;19.30;56.70;21.40;93790.00;;;;10473830;28;45196;-59
2022/08/25 13:28:24;;;;;;;1.33;0.90;;;19.30;56.60;21.40;93792.00;;;;10473513;28;45594;-58
2022/08/25 13:33:53;;;;;;;0.88;0.60;;;19.40;56.50;21.50;93793.00;;;;10473686;28;45396;-59
2022/08/25 13:39:18;;;;;;;1.20;0.80;;;19.40;56.40;21.50;93788.00;;;;10472664;28;45753;-60
2022/08/25 13:44:40;;;;;;;1.63;0.70;;;19.40;56.30;21.50;93780.00;;;;10440268;28;45231;-57
2022/08/25 13:50:20;;;;;;;1.20;0.80;;;19.40;56.10;21.50;93782.00;;;;10448833;28;45489;-57
2022/08/25 13:55:52;;;;;;;0.80;0.57;;;19.40;56.10;21.60;93783.00;;;;10455542;28;45976;-60
2022/08/25 14:01:16;;;;;;;0.98;0.68;;;19.50;56.10;21.60;93774.00;;;;10472030;28;45803;-60
2022/08/25 14:06:37;;;;;;;0.88;0.80;;;19.50;55.90;21.60;93772.00;;;;10431009;28;45401;-60
2022/08/25 14:11:58;;;;;;;0.77;0.63;;;19.50;55.80;21.60;93775.00;;;;10429833;28;45127;-59
2022/08/25 14:17:19;;;;;;;1.48;0.75;;;19.60;55.80;21.60;93783.00;;;;10442685;28;45888;-58
2022/08/25 14:22:41;;;;;;;1.60;0.70;;;19.50;55.80;21.60;93770.00;;;;10446147;28;45811;-57
2022/08/25 14:28:05;;;;;;;0.70;0.70;;;19.60;55.80;21.60;93780.00;;;;10456240;28;45687;-57
2022/08/25 14:33:33;;;;;;;1.08;0.68;;;19.60;55.70;21.70;93765.00;;;;10462065;28;45153;-59
2022/08/25 14:38:55;;;;;;;0.63;0.63;;;19.60;55.60;21.70;93764.00;;;;10448854;28;45209;-58
2022/08/25 14:44:15;;;;;;;1.73;0.77;;;19.60;55.50;21.70;93765.00;;;;10450992;28;45783;-60
2022/08/25 14:49:41;;;;;;;1.02;0.60;;;19.70;55.60;21.70;93770.00;;;;10451557;28;45278;-59
2022/08/25 14:55:04;;;;;;;0.82;0.60;;;19.70;55.60;21.70;93759.00;;;;10445332;28;45258;-59
2022/08/25 15:00:25;;;;;;;0.68;0.63;;;19.70;55.60;21.70;93746.00;;;;10471957;28;45199;-57
2022/08/25 15:05:46;;;;;;;0.80;0.70;;;19.70;55.50;21.70;93748.00;;;;10440717;28;45753;-58
2022/08/25 15:11:08;;;;;;;1.65;0.80;;;19.70;55.40;21.70;93750.00;;;;10427738;28;45707;-59
2022/08/25 15:16:31;;;;;;;1.30;1.00;;;19.70;55.40;21.80;93735.00;;;;10427217;28;45217;-59
2022/08/25 15:21:52;;;;;;;1.50;1.15;;;19.70;55.40;21.80;93731.00;;;;10443172;28;45272;-57
2022/08/25 15:27:15;;;;;;;1.25;1.15;;;19.70;55.30;21.80;93727.00;;;;10427496;28;45402;-60
2022/08/25 15:32:36;;;;;;;1.67;1.40;;;19.80;55.30;21.80;93739.00;;;;10426262;28;45441;-58
2022/08/25 15:37:56;;;;;;;1.77;1.60;;;19.80;55.10;21.80;93731.00;;;;10424742;28;45259;-59
2022/08/25 15:43:19;;;;;;;2.50;2.15;;;19.80;55.20;21.80;93727.00;;;;10445483;28;45291;-57
2022/08/25 15:48:40;;;;;;;2.95;2.47;;;19.80;55.10;21.80;93723.00;;;;10446784;28;45359;-58
2022/08/25 15:54:00;;;;;;;3.65;2.75;;;19.80;55.10;21.90;93730.00;;;;10445535;28;45345;-57
2022/08/25 15:59:22;;;;;;;2.88;2.25;;;19.90;55.00;21.90;93724.00;;;;10452510;28;45205;-57
2022/08/25 16:04:43;;;;;;;2.50;2.00;;;19.90;55.00;21.90;93727.00;;;;10431877;28;45259;-61
2022/08/25 16:10:05;;;;;;;2.38;2.05;;;19.90;54.90;21.90;93722.00;;;;10429191;28;45799;-59
2022/08/25 16:15:28;;;;;;;2.25;1.73;;;19.90;54.80;22.00;93721.00;;;;10427187;28;45143;-59
2022/08/25 16:20:49;;;;;;;2.10;1.88;;;19.90;54.90;22.00;93721.00;;;;10427533;28;45123;-59
2022/08/25 16:26:11;;;;;;;3.28;1.95;;;20.00;54.70;21.90;93727.00;;;;10426536;28;45131;-59
2022/08/25 16:31:33;;;;;;;3.03;1.90;;;20.00;54.80;22.00;93722.00;;;;10451083;28;45315;-57
2022/08/25 16:36:54;;;;;;;2.33;1.85;;;20.00;54.70;22.00;93715.00;;;;10430941;28;45851;-57
2022/08/25 16:42:15;;;;;;;2.05;1.80;;;20.00;54.70;22.00;93715.00;;;;10434045;28;45129;-57
2022/08/25 16:47:38;;;;;;;2.10;1.80;;;20.00;55.40;22.00;93710.00;;;;10439594;28;45132;-60
2022/08/25 16:58:38;;;;;;;5.45;1.73;;;20.00;54.60;22.00;93711.00;;;;10442119;28;45216;-58
2022/08/25 17:04:00;;;;;;;2.28;1.73;;;19.90;54.70;22.00;93710.00;;;;10450994;28;45702;-55
2022/08/25 17:09:21;;;;;;;2.25;1.90;;;19.90;54.60;22.00;93712.00;;;;10449475;28;45166;-59
2022/08/25 17:14:41;;;;;;;2.83;2.33;;;19.90;54.80;22.00;93710.00;;;;10442505;28;45290;-57
2022/08/25 17:20:04;;;;;;;2.50;2.20;;;19.90;54.80;22.00;93700.00;;;;10432892;28;45185;-58
2022/08/25 17:25:24;;;;;;;2.15;1.90;;;19.90;54.80;21.90;93706.00;;;;10431921;28;45294;-60
2022/08/25 17:30:45;;;;;;;2.28;1.90;;;19.90;54.80;21.90;93720.00;;;;10459030;28;45542;-59
2022/08/25 17:36:08;;;;;;;2.38;1.70;;;19.80;54.80;21.90;93711.00;;;;10445200;28;45189;-60
2022/08/25 17:41:29;;;;;;;1.92;1.60;;;19.80;54.80;21.90;93704.00;;;;10431088;28;45294;-59
2022/08/25 17:46:50;;;;;;;3.53;2.13;;;19.80;54.90;21.90;93722.00;;;;10427632;28;45687;-57
2022/08/25 17:52:12;;;;;;;3.53;1.90;;;19.80;54.90;21.90;93715.00;;;;10461019;28;45777;-60
2022/08/25 17:57:32;;;;;;;2.10;1.80;;;19.80;54.90;21.80;93718.00;;;;10462888;28;45280;-60
2022/08/25 18:02:53;;;;;;;2.20;1.70;;;19.80;55.00;21.80;93716.00;;;;10456879;28;45735;-59
2022/08/25 18:08:17;;;;;;;2.53;1.75;;;19.80;55.10;21.90;93719.00;;;;10435634;28;46124;-59
2022/08/25 18:13:38;;;;;;;2.83;1.75;;;19.80;55.10;21.80;93726.00;;;;10429940;28;45234;-60
2022/08/25 18:18:58;;;;;;;2.17;1.70;;;19.70;55.20;21.80;93728.00;;;;10430314;28;45159;-59
2022/08/25 18:24:20;;;;;;;2.63;2.20;;;19.70;55.30;21.80;93730.00;;;;10455967;28;45254;-58
2022/08/25 18:29:41;;;;;;;1.90;1.70;;;19.70;55.30;21.80;93728.00;;;;10466903;28;45388;-59
2022/08/25 18:35:01;;;;;;;2.95;1.85;;;19.70;55.30;21.80;93727.00;;;;10430047;28;45257;-57
2022/08/25 18:40:24;;;;;;;2.25;1.63;;;19.60;55.30;21.70;93722.00;;;;10429368;28;45560;-59
2022/08/25 18:45:47;;;;;;;2.85;1.80;;;19.60;55.30;21.70;93728.00;;;;10429608;28;45234;-58
2022/08/25 18:51:08;;;;;;;2.45;1.73;;;19.60;55.30;21.70;93737.00;;;;10428833;28;45212;-60
2022/08/25 18:56:30;;;;;;;2.25;1.80;;;19.60;55.30;21.70;93744.00;;;;10442930;28;45182;-59
2022/08/25 19:01:52;;;;;;;1.73;1.45;;;19.60;55.30;21.70;93738.00;;;;10465808;28;45109;-59
2022/08/25 19:07:13;;;;;;;2.05;1.52;;;19.60;55.30;21.70;93744.00;;;;10428431;28;45742;-58
2022/08/25 19:12:35;;;;;;;2.00;1.27;;;19.60;55.30;21.70;93754.00;;;;10429118;28;45283;-59
2022/08/25 19:17:57;;;;;;;1.90;1.40;;;19.50;55.40;21.70;93751.00;;;;10458807;28;45240;-59
2022/08/25 19:23:18;;;;;;;2.50;1.50;;;19.50;55.40;21.70;93750.00;;;;10469457;28;45892;-57
2022/08/25 19:28:40;;;;;;;2.60;1.35;;;19.50;55.50;21.70;93747.00;;;;10469285;28;45208;-59
2022/08/25 19:34:02;;;;;;;1.55;1.35;;;19.50;55.50;21.60;93749.00;;;;10440035;28;45196;-59
2022/08/25 19:39:24;;;;;;;2.13;1.40;;;19.50;55.50;21.60;93748.00;;;;10426933;28;46586;-57
2022/08/25 19:44:46;;;;;;;1.42;1.10;;;19.50;55.50;21.60;93752.00;;;;10427511;28;45687;-60
2022/08/25 19:50:09;;;;;;;1.67;1.20;;;19.50;55.50;21.60;93758.00;;;;10455536;28;45122;-58
2022/08/25 19:55:30;;;;;;;1.50;1.30;;;19.50;55.50;21.60;93751.00;;;;10469482;28;45333;-58
2022/08/25 20:00:52;;;;;;;1.40;1.20;;;19.50;55.50;21.60;93762.00;;;;10469434;28;45683;-59
2022/08/25 20:06:13;;;;;;;1.45;1.08;;;19.50;55.50;21.60;93756.00;;;;10447209;28;45280;-58
2022/08/25 20:11:34;;;;;;;1.58;1.13;;;19.50;55.50;21.60;93758.00;;;;10460218;28;45236;-58
2022/08/25 20:16:56;;;;;;;1.20;0.98;;;19.50;55.50;21.60;93761.00;;;;10453784;28;45358;-58
2022/08/25 20:22:17;;;;;;;2.25;1.30;;;19.50;55.50;21.60;93758.00;;;;10451776;28;45131;-56
2022/08/25 20:27:41;;;;;;;1.35;0.90;;;19.40;55.40;21.60;93757.00;;;;10444384;28;45707;-59
2022/08/25 20:33:03;;;;;;;1.40;1.10;;;19.50;55.50;21.60;93767.00;;;;10453701;28;45748;-59
2022/08/25 20:38:25;;;;;;;1.65;1.00;;;19.40;55.50;21.60;93757.00;;;;10433638;28;45244;-59
2022/08/25 20:43:46;;;;;;;1.05;0.95;;;19.40;55.40;21.60;93766.00;;;;10462444;28;45815;-58
2022/08/25 20:49:08;;;;;;;2.38;1.00;;;19.40;55.40;21.50;93752.00;;;;10474531;28;45384;-58
2022/08/25 20:54:29;;;;;;;1.40;1.10;;;19.40;55.40;21.50;93767.00;;;;10475007;28;45261;-59
2022/08/25 20:59:51;;;;;;;1.20;1.10;;;19.40;55.40;21.50;93777.00;;;;10433254;28;45870;-57
2022/08/25 21:05:13;;;;;;;1.13;0.95;;;19.40;55.40;21.50;93782.00;;;;10447398;28;45253;-61
2022/08/25 21:10:34;;;;;;;1.50;1.10;;;19.40;55.40;21.50;93782.00;;;;10474808;28;45184;-59
2022/08/25 21:15:54;;;;;;;1.00;0.90;;;19.40;55.50;21.50;93777.00;;;;10474024;28;45200;-58
2022/08/25 21:21:16;;;;;;;1.20;0.98;;;19.40;55.40;21.50;93769.00;;;;10473476;28;45189;-58
2022/08/25 21:26:38;;;;;;;1.05;0.95;;;19.40;55.40;21.50;93787.00;;;;10474015;28;45281;-57
2022/08/25 21:31:59;;;;;;;1.77;1.08;;;19.40;55.40;21.50;93788.00;;;;10468569;28;45471;-60
2022/08/25 21:37:21;;;;;;;1.70;0.95;;;19.40;55.50;21.50;93793.00;;;;10432113;28;45219;-59
2022/08/25 21:42:42;;;;;;;1.10;0.90;;;19.40;55.50;21.50;93778.00;;;;10431650;28;45785;-59
2022/08/25 21:48:04;;;;;;;1.30;0.80;;;19.40;55.50;21.50;93778.00;;;;10430171;28;45786;-59
2022/08/25 21:53:26;;;;;;;1.33;0.93;;;19.40;55.50;21.50;93782.00;;;;10431244;28;45883;-60
2022/08/25 21:58:48;;;;;;;1.20;0.88;;;19.40;55.50;21.50;93787.00;;;;10464298;28;45205;-59
2022/08/25 22:04:11;;;;;;;0.90;0.85;;;19.40;55.50;21.50;93788.00;;;;10449124;28;45246;-59
2022/08/25 22:09:34;;;;;;;0.82;0.80;;;19.40;55.40;21.50;93778.00;;;;10430653;28;45187;-60
2022/08/25 22:14:54;;;;;;;0.85;0.75;;;19.40;55.40;21.50;93781.00;;;;10430977;28;45182;-58
2022/08/25 22:20:16;;;;;;;1.05;0.80;;;19.40;55.40;21.50;93773.00;;;;10430846;28;45269;-60
2022/08/25 22:25:38;;;;;;;1.00;0.75;;;19.30;55.30;21.50;93775.00;;;;10430251;28;45141;-59
2022/08/25 22:31:02;;;;;;;1.10;0.98;;;19.30;55.20;21.50;93759.00;;;;10439090;28;45562;-60
2022/08/25 22:36:26;;;;;;;1.40;0.90;;;19.30;55.10;21.50;93769.00;;;;10431925;28;45563;-59
2022/08/25 22:41:48;;;;;;;1.42;0.90;;;19.40;55.10;21.50;93774.00;;;;10430036;28;45119;-59
2022/08/25 22:47:09;;;;;;;2.25;0.90;;;19.30;55.10;21.50;93779.00;;;;10459907;28;45641;-59
2022/08/25 22:52:32;;;;;;;1.60;1.20;;;19.40;55.10;21.50;93767.00;;;;10470706;28;45844;-59
2022/08/25 22:57:54;;;;;;;0.80;0.70;;;19.40;55.10;21.50;93779.00;;;;10470970;28;45225;-58
2022/08/25 23:03:15;;;;;;;0.93;0.80;;;19.30;55.00;21.50;93779.00;;;;10454545;28;45175;-58
2022/08/25 23:08:35;;;;;;;0.60;0.60;;;19.30;55.00;21.40;93776.00;;;;10428691;28;45779;-60
2022/08/25 23:14:01;;;;;;;0.80;0.70;;;19.30;55.00;21.50;93765.00;;;;10428898;28;45192;-59
2022/08/25 23:19:21;;;;;;;1.17;0.90;;;19.30;55.00;21.40;93764.00;;;;10457627;28;45482;-60
2022/08/25 23:24:45;;;;;;;1.02;0.90;;;19.30;54.90;21.50;93756.00;;;;10470302;28;45397;-60
2022/08/25 23:30:09;;;;;;;1.00;0.80;;;19.30;54.80;21.40;93745.00;;;;10469781;28;45169;-60
2022/08/25 23:35:30;;;;;;;0.70;0.70;;;19.30;54.80;21.40;93748.00;;;;10437610;28;45667;-60
2022/08/25 23:40:51;;;;;;;1.13;0.85;;;19.30;54.80;21.40;93750.00;;;;10427911;28;45291;-59
2022/08/25 23:46:13;;;;;;;1.10;0.73;;;19.20;54.70;21.40;93756.00;;;;10427025;28;45110;-58
2022/08/25 23:51:36;;;;;;;0.98;0.70;;;19.30;54.70;21.40;93743.00;;;;10427214;28;45228;-58
2022/08/25 23:56:57;;;;;;;1.33;0.82;;;19.30;54.70;21.40;93755.00;;;;10445276;28;45817;-60
